CheckWX is a tool to help pilots better visualize weather data.  It is not intended as a substitute for an official pre-flight weather briefing.

12:18:18 UTC

CYPC METAR
Paulatuk (Nora Aliqatchialuk Ruben) Airport
Paulatuk, Canada
Current

12 hours ago

CYPC 220000Z 21015KT 10SM DRSN SCT006 OVC020 M17/M21 A2994 RMK SC3SC5 -17.5/-21.1/TR/LAST STFD OBS/NXT 221400UTC SLP141
Observed
Feb-22 @ 00:00 UTC
Wind
  • 210° at 15 KTS
Visibility
10 SM
Flight Rules
MVFR
Conditions
Low drifting Snow
Cloud Levels
  • Scattered at 600' AGL
  • Overcast at 2,000' AGL
Temperature
-17°C / 1°F
Dewpoint
-21°C / -6°F
Humidity
71%
Altimeter
29.94" Hg
Pressure
1014.1 hPa
Previous

13 hours ago

CYPC 212300Z 21016KT 6SM DRSN SCT006 OVC015 M19/M22 A2996 RMK SC3SC5 SLP146
Observed
Feb-21 @ 23:00 UTC
Wind
  • 210° at 16 KTS
Visibility
6 SM
Flight Rules
MVFR
Conditions
Low drifting Snow
Cloud Levels
  • Scattered at 600' AGL
  • Overcast at 1,500' AGL
Temperature
-19°C / -2°F
Dewpoint
-22°C / -8°F
Humidity
77%
Altimeter
29.96" Hg
Pressure
1014.6 hPa
Previous

14 hours ago

CYPC 212240Z 21017KT 3SM DRSN SCT006 OVC015 M19/M22 A2996 RMK SC3SC5 SLP146
Observed
Feb-21 @ 22:40 UTC
Wind
  • 210° at 17 KTS
Visibility
3 SM
Flight Rules
MVFR
Conditions
Low drifting Snow
Cloud Levels
  • Scattered at 600' AGL
  • Overcast at 1,500' AGL
Temperature
-19°C / -2°F
Dewpoint
-22°C / -8°F
Humidity
77%
Altimeter
29.96" Hg
Pressure
1014.6 hPa